Time;durP1;ratioP1;P1;durP2;ratioP2;P2;SDS_P1;SDS_P2;PMS_P1;PMS_P2;Temp;Humidity;BMP_temperature;BMP_pressure;BME280_temperature;BME280_humidity;BME280_pressure;Samples;Min_cycle;Max_cycle;Signal;HPM_P1;HPM_P2
2024/01/05 00:01:41;;;;;;;6.97;4.43;;;2.40;99.90;;;;;;4771312;30;20688;-84
2024/01/05 00:04:07;;;;;;;7.67;4.47;;;2.40;99.90;;;;;;4755147;30;20319;-83
2024/01/05 00:06:37;;;;;;;7.53;5.37;;;2.40;99.90;;;;;;4761251;30;20373;-84
2024/01/05 00:09:03;;;;;;;8.90;4.90;;;2.30;99.90;;;;;;4768186;30;20228;-84
2024/01/05 00:11:29;;;;;;;10.30;4.80;;;2.40;99.90;;;;;;4761291;30;20193;-84
2024/01/05 00:13:55;;;;;;;7.77;5.20;;;2.40;99.90;;;;;;4761261;30;20193;-83
2024/01/05 00:16:22;;;;;;;9.83;5.10;;;2.40;99.90;;;;;;4761096;30;20245;-84
2024/01/05 00:18:48;;;;;;;7.37;4.53;;;2.40;99.90;;;;;;5155923;24;20388;-86
2024/01/05 00:21:25;;;;;;;11.03;4.93;;;2.40;99.90;;;;;;4809076;29;20250;-86
2024/01/05 00:23:51;;;;;;;7.13;4.60;;;2.40;99.90;;;;;;4809633;29;20666;-85
2024/01/05 00:26:18;;;;;;;7.30;4.40;;;2.40;99.90;;;;;;4792854;29;20664;-85
2024/01/05 00:28:45;;;;;;;8.97;5.20;;;2.30;99.90;;;;;;4793104;29;20676;-86
2024/01/05 00:31:13;;;;;;;7.37;4.70;;;2.40;99.90;;;;;;4790331;29;20250;-86
2024/01/05 00:33:40;;;;;;;10.17;4.77;;;2.40;99.90;;;;;;4788306;29;20243;-86
2024/01/05 00:36:06;;;;;;;10.83;5.43;;;2.40;99.90;;;;;;4793019;29;20205;-85
2024/01/05 00:38:32;;;;;;;9.20;5.40;;;2.40;99.90;;;;;;4809077;29;20187;-86
2024/01/05 00:40:59;;;;;;;11.13;5.43;;;2.40;99.90;;;;;;4792775;29;20205;-83
2024/01/05 00:43:24;;;;;;;8.90;5.40;;;2.40;99.90;;;;;;4792837;29;20187;-85
2024/01/05 00:45:50;;;;;;;11.47;5.83;;;2.40;99.90;;;;;;4792639;29;20228;-86
2024/01/05 00:48:16;;;;;;;7.37;5.30;;;2.40;99.90;;;;;;4781996;29;20237;-87
2024/01/05 00:50:42;;;;;;;12.23;5.43;;;2.40;99.90;;;;;;4788691;29;20205;-86
2024/01/05 00:53:08;;;;;;;7.73;5.57;;;2.40;99.90;;;;;;4792869;29;20226;-86
2024/01/05 00:55:34;;;;;;;9.80;5.20;;;2.40;99.90;;;;;;4792459;29;20198;-84
2024/01/05 00:58:00;;;;;;;9.43;5.30;;;2.50;99.90;;;;;;4792231;29;20521;-87
2024/01/05 01:00:26;;;;;;;10.43;6.17;;;2.40;99.90;;;;;;4808910;29;20190;-87
2024/01/05 01:02:52;;;;;;;8.70;5.53;;;2.40;99.90;;;;;;4792277;29;20655;-86
2024/01/05 01:05:19;;;;;;;9.40;5.80;;;2.40;99.90;;;;;;4788989;30;20325;-86
2024/01/05 01:07:45;;;;;;;12.93;6.03;;;2.40;99.90;;;;;;4768030;30;20199;-87
2024/01/05 01:10:13;;;;;;;11.47;6.20;;;2.50;99.90;;;;;;4791248;29;20318;-87
2024/01/05 01:12:39;;;;;;;12.70;6.73;;;2.50;99.90;;;;;;4801133;29;20251;-86
2024/01/05 01:15:05;;;;;;;11.70;6.43;;;2.50;99.90;;;;;;4790248;29;20297;-89
2024/01/05 01:17:31;;;;;;;12.10;6.33;;;2.40;99.90;;;;;;4774340;30;20199;-87
2024/01/05 01:20:05;;;;;;;12.53;6.63;;;2.40;99.90;;;;;;4778373;30;20243;-87
2024/01/05 01:22:31;;;;;;;10.50;6.70;;;2.40;99.90;;;;;;4788510;30;20246;-86
2024/01/05 01:24:57;;;;;;;11.57;7.17;;;2.40;99.90;;;;;;4788461;29;20214;-85
2024/01/05 01:27:23;;;;;;;10.13;6.13;;;2.30;99.90;;;;;;4781015;29;20630;-86
2024/01/05 01:29:52;;;;;;;11.37;6.80;;;2.40;99.90;;;;;;4788319;29;20233;-86
2024/01/05 01:32:18;;;;;;;13.00;6.90;;;2.40;99.90;;;;;;4788525;30;20191;-86
2024/01/05 01:34:44;;;;;;;12.00;6.67;;;2.40;99.90;;;;;;4788094;30;20195;-86
2024/01/05 01:37:10;;;;;;;12.57;6.93;;;2.40;99.90;;;;;;4780725;30;20199;-85
2024/01/05 01:39:36;;;;;;;9.40;6.13;;;2.40;99.90;;;;;;4787938;29;20270;-86
2024/01/05 01:42:03;;;;;;;10.43;7.20;;;2.40;99.90;;;;;;4788060;30;20222;-86
2024/01/05 01:44:29;;;;;;;10.47;6.97;;;2.40;99.90;;;;;;4780684;29;20230;-86
2024/01/05 01:46:56;;;;;;;10.50;7.13;;;2.40;99.90;;;;;;4788115;30;20233;-89
2024/01/05 01:49:23;;;;;;;14.60;7.40;;;2.40;99.90;;;;;;4781627;30;20234;-86
2024/01/05 01:51:49;;;;;;;11.90;7.20;;;2.40;99.90;;;;;;4787985;29;20195;-85
2024/01/05 01:54:17;;;;;;;11.37;6.80;;;2.40;99.90;;;;;;4788030;30;20205;-87
2024/01/05 01:56:45;;;;;;;10.47;6.90;;;2.40;99.90;;;;;;4787436;29;20242;-87
2024/01/05 01:59:12;;;;;;;12.33;7.63;;;2.40;99.90;;;;;;4788281;29;20627;-87
2024/01/05 02:01:41;;;;;;;12.70;7.40;;;2.40;99.90;;;;;;4787878;29;20265;-84
2024/01/05 02:04:14;;;;;;;10.97;6.50;;;2.40;99.90;;;;;;4788941;29;20248;-86
2024/01/05 02:06:44;;;;;;;12.07;6.80;;;2.40;99.90;;;;;;4787915;30;20206;-85
2024/01/05 02:09:10;;;;;;;10.83;6.93;;;2.50;99.90;;;;;;4787762;30;20408;-86
2024/01/05 02:11:38;;;;;;;9.97;6.93;;;2.40;99.90;;;;;;4787953;29;20203;-87
2024/01/05 02:14:04;;;;;;;11.03;7.10;;;2.40;99.90;;;;;;4789013;29;20251;-87
2024/01/05 02:16:30;;;;;;;14.57;6.70;;;2.40;99.90;;;;;;4781663;29;20228;-86
2024/01/05 02:18:56;;;;;;;10.37;6.53;;;2.40;99.90;;;;;;4732777;30;1283807;-87
2024/01/05 02:21:32;;;;;;;12.60;6.37;;;2.50;99.90;;;;;;4788503;30;20462;-88
2024/01/05 02:23:59;;;;;;;10.77;6.93;;;2.40;99.90;;;;;;4781479;30;20259;-86
2024/01/05 02:26:24;;;;;;;10.67;7.53;;;2.40;99.90;;;;;;4788836;29;20199;-90
2024/01/05 02:28:50;;;;;;;9.47;7.00;;;2.40;99.90;;;;;;4788489;29;20235;-85
2024/01/05 02:31:17;;;;;;;13.27;7.10;;;2.50;99.90;;;;;;4788558;30;20730;-87
2024/01/05 02:33:43;;;;;;;11.73;6.80;;;2.40;99.90;;;;;;4788186;30;20191;-87
2024/01/05 02:36:09;;;;;;;9.10;6.83;;;2.40;99.90;;;;;;4788237;29;20187;-87
2024/01/05 02:38:35;;;;;;;13.53;7.47;;;2.40;99.90;;;;;;4788293;30;20199;-86
2024/01/05 02:41:06;;;;;;;14.13;7.27;;;2.40;99.90;;;;;;4788301;30;20195;-87
2024/01/05 02:43:32;;;;;;;11.80;7.07;;;2.40;99.90;;;;;;4783424;30;20219;-86
2024/01/05 02:45:58;;;;;;;15.83;7.70;;;2.40;99.90;;;;;;4770970;30;20239;-86
2024/01/05 02:48:23;;;;;;;12.73;7.40;;;2.40;99.90;;;;;;4783732;29;20201;-84
2024/01/05 02:50:49;;;;;;;9.93;7.37;;;2.40;99.90;;;;;;4784756;30;20195;-85
2024/01/05 02:53:15;;;;;;;11.80;7.40;;;2.40;99.90;;;;;;4789356;29;20184;-86
2024/01/05 02:55:41;;;;;;;10.93;7.53;;;2.40;99.90;;;;;;4774356;30;20195;-87
2024/01/05 02:58:06;;;;;;;14.30;7.20;;;2.40;99.90;;;;;;4779298;30;20222;-86
2024/01/05 03:00:32;;;;;;;10.80;7.23;;;2.30;99.90;;;;;;4787896;30;20226;-87
2024/01/05 03:02:58;;;;;;;10.93;7.47;;;2.30;99.90;;;;;;4781554;29;20196;-85
2024/01/05 03:05:24;;;;;;;13.67;7.27;;;2.40;99.90;;;;;;4781789;29;20194;-88
2024/01/05 03:07:50;;;;;;;14.90;7.83;;;2.30;99.90;;;;;;4787939;30;20199;-86
2024/01/05 03:10:15;;;;;;;15.03;7.47;;;2.30;99.90;;;;;;4787811;30;20381;-86
2024/01/05 03:12:41;;;;;;;13.67;8.57;;;2.30;99.90;;;;;;4783953;29;20199;-87
2024/01/05 03:15:08;;;;;;;17.60;8.87;;;2.30;99.90;;;;;;4788204;30;20207;-85
2024/01/05 03:17:34;;;;;;;12.33;8.17;;;2.40;99.90;;;;;;4785469;30;20704;-87
2024/01/05 03:20:00;;;;;;;17.10;8.70;;;2.30;99.90;;;;;;4777033;30;20247;-91
2024/01/05 03:22:27;;;;;;;12.73;8.43;;;2.30;99.90;;;;;;4780408;30;20196;-88
2024/01/05 03:24:53;;;;;;;12.80;8.60;;;2.30;99.90;;;;;;4788729;30;20226;-87
2024/01/05 03:27:18;;;;;;;16.87;8.47;;;2.30;99.90;;;;;;4791443;30;20219;-89
2024/01/05 03:29:44;;;;;;;13.90;8.33;;;2.30;99.90;;;;;;4791251;29;20219;-91
2024/01/05 03:32:10;;;;;;;14.50;8.73;;;2.30;99.90;;;;;;4791395;29;20195;-89
2024/01/05 03:34:37;;;;;;;14.17;7.27;;;2.20;99.90;;;;;;4791388;30;20210;-88
2024/01/05 03:37:03;;;;;;;13.03;7.93;;;2.20;99.90;;;;;;4790337;30;20199;-84
2024/01/05 03:39:28;;;;;;;14.33;9.47;;;2.30;99.90;;;;;;4790367;30;20283;-85
2024/01/05 03:41:55;;;;;;;14.90;8.63;;;2.30;99.90;;;;;;4790306;30;20293;-84
2024/01/05 03:44:21;;;;;;;12.10;8.27;;;2.20;99.90;;;;;;4780080;30;20237;-85
2024/01/05 03:46:48;;;;;;;12.73;8.30;;;2.30;99.90;;;;;;4772560;30;20602;-85
2024/01/05 03:49:14;;;;;;;15.10;8.80;;;2.20;99.90;;;;;;4782428;30;20287;-85
2024/01/05 03:51:40;;;;;;;12.97;8.13;;;2.30;99.90;;;;;;4790453;29;20192;-88
2024/01/05 03:54:06;;;;;;;13.70;8.43;;;2.30;99.90;;;;;;4790477;30;20704;-88
2024/01/05 03:56:42;;;;;;;14.93;9.00;;;2.20;99.90;;;;;;4790420;29;20199;-85
2024/01/05 03:59:08;;;;;;;12.77;8.60;;;2.30;99.90;;;;;;4789978;30;20194;-84
2024/01/05 04:01:46;;;;;;;14.87;9.77;;;2.20;99.90;;;;;;4790098;29;20230;-84
2024/01/05 04:04:12;;;;;;;12.43;8.33;;;2.30;99.90;;;;;;4789864;30;20203;-84
2024/01/05 04:06:38;;;;;;;11.17;8.37;;;2.20;99.90;;;;;;4789991;29;20592;-85
2024/01/05 04:09:05;;;;;;;14.80;8.83;;;2.20;99.90;;;;;;4789849;29;20237;-83
2024/01/05 04:11:30;;;;;;;14.73;9.60;;;2.20;99.90;;;;;;4789957;30;20253;-86
2024/01/05 04:13:59;;;;;;;14.27;9.17;;;2.20;99.90;;;;;;4790129;30;20199;-84
2024/01/05 04:16:25;;;;;;;16.40;9.10;;;2.30;99.90;;;;;;4783611;30;20194;-85
2024/01/05 04:18:51;;;;;;;12.63;8.27;;;2.30;99.90;;;;;;4777018;29;20240;-85
2024/01/05 04:21:16;;;;;;;12.17;8.40;;;2.20;99.90;;;;;;4782079;30;20195;-84
2024/01/05 04:23:42;;;;;;;12.40;9.27;;;2.30;99.90;;;;;;4789651;30;20199;-85
2024/01/05 04:26:08;;;;;;;13.57;8.97;;;2.30;99.90;;;;;;4790444;29;20187;-82
2024/01/05 04:28:34;;;;;;;13.20;8.90;;;2.30;99.90;;;;;;4789245;29;20215;-84
2024/01/05 04:31:01;;;;;;;12.43;7.87;;;2.30;99.90;;;;;;4789308;30;20275;-84
2024/01/05 04:33:27;;;;;;;11.53;7.63;;;2.30;99.90;;;;;;4789584;30;20635;-85
2024/01/05 04:35:53;;;;;;;11.83;7.87;;;2.30;99.90;;;;;;4790241;29;20206;-84
2024/01/05 04:38:19;;;;;;;13.03;8.17;;;2.30;99.90;;;;;;4790745;29;20183;-86
2024/01/05 04:40:44;;;;;;;11.40;7.70;;;2.30;99.90;;;;;;4789065;30;20195;-86
2024/01/05 04:43:10;;;;;;;12.23;8.13;;;2.30;99.90;;;;;;4790435;29;20594;-86
2024/01/05 04:45:36;;;;;;;12.20;8.27;;;2.20;99.90;;;;;;4789663;30;20616;-85
2024/01/05 04:48:03;;;;;;;11.10;7.50;;;2.30;99.90;;;;;;4788676;30;20642;-85
2024/01/05 04:50:28;;;;;;;12.90;8.10;;;2.30;99.90;;;;;;4778414;30;20207;-84
2024/01/05 04:52:55;;;;;;;13.67;7.77;;;2.30;99.90;;;;;;4789113;29;20233;-83
2024/01/05 04:55:21;;;;;;;10.27;7.50;;;2.30;99.90;;;;;;4789083;30;20195;-85
2024/01/05 04:57:47;;;;;;;12.87;7.50;;;2.30;99.90;;;;;;4790239;29;20245;-86
2024/01/05 05:00:14;;;;;;;12.30;7.73;;;2.30;99.90;;;;;;4789244;30;20224;-86
2024/01/05 05:02:39;;;;;;;10.57;7.10;;;2.30;99.90;;;;;;4789041;30;20201;-85
2024/01/05 05:05:05;;;;;;;10.33;6.60;;;2.30;99.90;;;;;;4788530;30;20286;-86
2024/01/05 05:07:31;;;;;;;9.97;6.93;;;2.30;99.90;;;;;;4790162;29;20191;-85
2024/01/05 05:09:57;;;;;;;10.50;7.20;;;2.30;99.90;;;;;;4788660;30;20246;-86
2024/01/05 05:12:23;;;;;;;11.50;7.40;;;2.30;99.90;;;;;;4788943;30;20195;-86
2024/01/05 05:14:48;;;;;;;12.07;6.93;;;2.30;99.90;;;;;;4788861;30;20226;-85
2024/01/05 05:17:14;;;;;;;14.03;7.10;;;2.30;99.90;;;;;;4788775;30;20635;-85
2024/01/05 05:19:40;;;;;;;10.47;7.00;;;2.30;99.90;;;;;;4791903;29;20234;-86
2024/01/05 05:22:06;;;;;;;11.37;6.73;;;2.30;99.90;;;;;;4807677;29;20526;-86
2024/01/05 05:24:32;;;;;;;10.40;7.20;;;2.30;99.90;;;;;;4791710;29;20195;-84
2024/01/05 05:26:57;;;;;;;10.07;7.03;;;2.30;99.90;;;;;;4791521;29;20271;-87
2024/01/05 05:29:23;;;;;;;10.83;6.97;;;2.30;99.90;;;;;;4791897;29;20214;-86
2024/01/05 05:31:49;;;;;;;11.87;7.43;;;2.30;99.90;;;;;;4792000;29;20206;-85
2024/01/05 05:34:17;;;;;;;11.70;6.83;;;2.30;99.90;;;;;;4790888;29;20194;-86
2024/01/05 05:36:42;;;;;;;12.57;7.40;;;2.30;99.90;;;;;;4791647;29;20290;-86
2024/01/05 05:39:10;;;;;;;9.93;7.13;;;2.30;99.90;;;;;;4791746;29;20547;-94
2024/01/05 05:41:36;;;;;;;16.07;8.00;;;2.30;99.90;;;;;;4791593;29;20205;-86
2024/01/05 05:44:03;;;;;;;12.00;7.10;;;2.30;99.90;;;;;;4791243;29;20190;-84
2024/01/05 05:46:29;;;;;;;10.00;6.83;;;2.30;99.90;;;;;;4791767;29;20198;-85
2024/01/05 05:48:55;;;;;;;10.87;7.00;;;2.30;99.90;;;;;;4794897;29;20300;-84
2024/01/05 05:51:20;;;;;;;11.40;7.33;;;2.30;99.90;;;;;;4791361;29;20247;-86
2024/01/05 05:53:46;;;;;;;11.57;7.17;;;2.40;99.90;;;;;;4784623;30;20191;-86
2024/01/05 05:56:12;;;;;;;12.93;7.17;;;2.40;99.90;;;;;;4790720;29;20198;-85
2024/01/05 05:58:41;;;;;;;11.00;7.20;;;2.40;99.90;;;;;;4791321;29;20201;-87
2024/01/05 06:01:07;;;;;;;11.63;7.30;;;2.40;99.90;;;;;;4784169;29;20654;-86
2024/01/05 06:03:39;;;;;;;12.23;8.00;;;2.40;99.90;;;;;;4791666;29;20251;-86
2024/01/05 06:06:16;;;;;;;9.97;6.77;;;2.50;99.90;;;;;;4791304;29;20208;-86
2024/01/05 06:08:42;;;;;;;9.43;6.63;;;2.40;99.90;;;;;;4791109;29;20271;-86
2024/01/05 06:11:08;;;;;;;11.83;7.10;;;2.50;99.90;;;;;;4790617;29;20541;-85
2024/01/05 06:13:34;;;;;;;11.30;6.97;;;2.40;99.90;;;;;;4785440;29;20206;-85
2024/01/05 06:15:59;;;;;;;11.23;6.97;;;2.40;99.90;;;;;;4788618;29;20668;-86
2024/01/05 06:18:26;;;;;;;9.47;6.77;;;2.40;99.90;;;;;;4803338;29;20706;-85
2024/01/05 06:20:51;;;;;;;10.20;7.07;;;2.50;99.90;;;;;;4773010;30;20647;-85
2024/01/05 06:23:18;;;;;;;9.30;6.40;;;2.50;99.90;;;;;;4783859;29;20207;-86
2024/01/05 06:25:44;;;;;;;10.23;6.50;;;2.50;99.90;;;;;;4791157;29;20197;-84
2024/01/05 06:28:11;;;;;;;11.30;6.77;;;2.50;99.90;;;;;;4791107;29;20521;-84
2024/01/05 06:30:37;;;;;;;9.53;6.23;;;2.50;99.90;;;;;;4807106;29;20226;-85
2024/01/05 06:33:05;;;;;;;8.07;5.87;;;2.50;99.90;;;;;;4790413;29;20194;-85
2024/01/05 06:35:31;;;;;;;9.43;6.07;;;2.50;99.90;;;;;;4806808;29;20201;-85
2024/01/05 06:37:57;;;;;;;9.70;6.07;;;2.50;99.90;;;;;;4791214;29;20198;-85
2024/01/05 06:40:22;;;;;;;11.40;6.57;;;2.50;99.90;;;;;;4790899;29;20194;-86
2024/01/05 06:42:49;;;;;;;8.40;5.93;;;2.50;99.90;;;;;;4783101;29;20630;-85
2024/01/05 06:45:15;;;;;;;9.43;5.70;;;2.50;99.90;;;;;;4790651;29;20187;-86
2024/01/05 06:47:41;;;;;;;9.60;5.80;;;2.50;99.90;;;;;;4792759;29;20596;-85
2024/01/05 06:50:07;;;;;;;7.87;5.63;;;2.50;99.90;;;;;;4785714;29;20325;-86
2024/01/05 06:52:34;;;;;;;10.43;6.37;;;2.50;99.90;;;;;;4788804;29;20190;-84
2024/01/05 06:55:00;;;;;;;8.17;5.30;;;2.50;99.90;;;;;;4802698;29;20269;-85
2024/01/05 06:57:29;;;;;;;8.43;6.10;;;2.60;99.90;;;;;;4784188;30;20195;-87
2024/01/05 06:59:55;;;;;;;7.67;5.43;;;2.60;99.90;;;;;;4784146;29;20195;-86
2024/01/05 07:02:20;;;;;;;8.03;5.07;;;2.50;99.90;;;;;;4807016;29;20282;-85
2024/01/05 07:04:46;;;;;;;9.00;5.47;;;2.50;99.90;;;;;;4789978;29;20199;-86
2024/01/05 07:07:12;;;;;;;7.23;4.77;;;2.50;99.90;;;;;;4794322;29;20533;-88
2024/01/05 07:09:39;;;;;;;7.37;5.20;;;2.50;99.90;;;;;;4794188;29;20301;-88
2024/01/05 07:12:05;;;;;;;6.43;4.73;;;2.50;99.90;;;;;;4794424;29;20243;-87
2024/01/05 07:14:30;;;;;;;8.97;4.87;;;2.50;99.90;;;;;;4793883;29;20231;-85
2024/01/05 07:16:56;;;;;;;6.80;5.33;;;2.50;99.90;;;;;;4792510;29;20202;-84
2024/01/05 07:19:22;;;;;;;8.23;5.33;;;2.50;99.90;;;;;;4779683;29;20249;-85
2024/01/05 07:21:48;;;;;;;7.67;5.27;;;2.50;99.90;;;;;;4793557;29;20218;-85
2024/01/05 07:24:15;;;;;;;8.63;5.10;;;2.50;99.90;;;;;;4792869;29;20230;-85
2024/01/05 07:26:42;;;;;;;6.40;4.70;;;2.50;99.90;;;;;;4793580;29;20194;-87
2024/01/05 07:29:08;;;;;;;6.10;4.50;;;2.50;99.90;;;;;;4793361;29;20222;-85
2024/01/05 07:31:34;;;;;;;6.47;4.73;;;2.50;99.90;;;;;;4809568;29;20199;-87
2024/01/05 07:34:03;;;;;;;5.40;4.00;;;2.50;99.90;;;;;;4793074;29;20218;-85
2024/01/05 07:36:29;;;;;;;6.67;4.60;;;2.60;99.90;;;;;;4788034;29;20199;-87
2024/01/05 07:38:59;;;;;;;6.03;4.30;;;2.60;99.90;;;;;;4794331;29;20230;-89
2024/01/05 07:41:28;;;;;;;5.57;4.30;;;2.50;99.90;;;;;;4793781;29;20634;-86
2024/01/05 07:43:54;;;;;;;5.90;4.20;;;2.50;99.90;;;;;;4793156;29;20748;-85
2024/01/05 07:46:22;;;;;;;5.10;4.30;;;2.50;99.90;;;;;;4793391;29;20198;-86
2024/01/05 07:48:48;;;;;;;5.77;4.43;;;2.50;99.90;;;;;;4787340;30;20623;-85
2024/01/05 07:51:18;;;;;;;5.00;4.00;;;2.50;99.90;;;;;;4792852;29;20213;-86
2024/01/05 07:53:45;;;;;;;6.43;4.03;;;2.50;99.90;;;;;;4793598;29;20190;-86
2024/01/05 07:56:11;;;;;;;6.10;4.43;;;2.50;99.90;;;;;;4793372;29;20198;-84
2024/01/05 07:58:39;;;;;;;6.20;4.30;;;2.60;99.90;;;;;;4792942;29;20199;-85
2024/01/05 08:01:05;;;;;;;4.97;4.00;;;2.60;99.90;;;;;;4793280;29;20229;-86
2024/01/05 08:03:31;;;;;;;6.00;4.57;;;2.60;99.90;;;;;;4793661;29;20292;-87
2024/01/05 08:05:57;;;;;;;6.50;4.77;;;2.60;99.90;;;;;;4793265;29;20205;-86
2024/01/05 08:08:23;;;;;;;6.30;4.67;;;2.60;99.90;;;;;;4793459;29;20209;-86
2024/01/05 08:10:49;;;;;;;6.03;4.40;;;2.60;99.90;;;;;;4809286;29;20537;-86
2024/01/05 08:13:15;;;;;;;7.40;5.10;;;2.60;99.90;;;;;;4793043;29;20567;-85
2024/01/05 08:15:40;;;;;;;8.53;4.70;;;2.60;99.90;;;;;;4787561;30;20199;-85
2024/01/05 08:18:06;;;;;;;6.67;5.00;;;2.70;99.90;;;;;;4787159;29;20292;-86
2024/01/05 08:20:32;;;;;;;6.97;4.90;;;2.70;99.90;;;;;;4778819;30;20195;-86
2024/01/05 08:22:59;;;;;;;6.43;4.97;;;2.60;99.90;;;;;;4779044;30;20192;-87
2024/01/05 08:25:25;;;;;;;6.57;5.07;;;2.60;99.90;;;;;;4790955;29;20700;-87
2024/01/05 08:27:51;;;;;;;7.37;5.37;;;2.60;99.90;;;;;;4782106;30;20207;-86
2024/01/05 08:30:16;;;;;;;6.83;5.07;;;2.60;99.90;;;;;;4789765;30;20284;-86
2024/01/05 08:32:42;;;;;;;9.10;5.20;;;2.60;99.90;;;;;;4791378;29;20184;-87
2024/01/05 08:35:08;;;;;;;6.73;4.93;;;2.60;99.90;;;;;;4789849;30;20202;-87
2024/01/05 08:37:34;;;;;;;8.50;5.50;;;2.60;99.90;;;;;;4786203;29;20281;-88
2024/01/05 08:40:01;;;;;;;7.70;5.23;;;2.60;99.90;;;;;;4771959;30;20808;-86
2024/01/05 08:42:27;;;;;;;8.20;5.40;;;2.60;99.90;;;;;;4775918;30;20210;-87
2024/01/05 08:44:53;;;;;;;6.47;4.83;;;2.60;99.90;;;;;;4782592;29;20238;-87
2024/01/05 08:47:19;;;;;;;6.77;4.73;;;2.60;99.90;;;;;;4775263;30;20211;-88
2024/01/05 08:49:45;;;;;;;6.20;4.47;;;2.60;99.90;;;;;;4776808;29;20223;-87
2024/01/05 08:52:10;;;;;;;6.17;4.40;;;2.60;99.90;;;;;;4782743;30;20200;-87
2024/01/05 08:54:40;;;;;;;6.13;4.53;;;2.60;99.90;;;;;;4790022;29;20670;-88
2024/01/05 08:57:09;;;;;;;6.97;5.33;;;2.60;99.90;;;;;;4789812;30;20237;-87
2024/01/05 08:59:37;;;;;;;6.07;4.70;;;2.60;99.90;;;;;;4782780;29;20196;-86
2024/01/05 09:02:03;;;;;;;5.90;4.60;;;2.60;99.90;;;;;;4787788;30;20639;-88
2024/01/05 09:04:31;;;;;;;6.73;4.70;;;2.60;99.90;;;;;;4789826;30;20243;-86
2024/01/05 09:07:00;;;;;;;5.93;4.73;;;2.70;99.90;;;;;;4789424;30;20596;-86
2024/01/05 09:09:26;;;;;;;6.57;5.07;;;2.70;99.90;;;;;;4788338;29;20335;-86
2024/01/05 09:11:51;;;;;;;6.20;4.90;;;2.70;99.90;;;;;;4789416;29;20285;-86
2024/01/05 09:14:19;;;;;;;7.23;4.80;;;2.70;99.90;;;;;;4789044;30;20237;-88
2024/01/05 09:16:45;;;;;;;7.33;5.20;;;2.70;99.90;;;;;;4789574;30;20219;-88
2024/01/05 09:19:11;;;;;;;7.30;5.40;;;2.70;99.90;;;;;;4789297;29;20270;-89
2024/01/05 09:21:37;;;;;;;8.77;5.97;;;2.70;99.90;;;;;;4788647;30;20268;-85
2024/01/05 09:24:06;;;;;;;9.13;6.20;;;2.70;99.90;;;;;;4788876;29;20195;-86
2024/01/05 09:26:33;;;;;;;8.33;6.23;;;2.70;99.90;;;;;;4784151;30;20196;-87
2024/01/05 09:28:59;;;;;;;8.90;6.40;;;2.70;99.90;;;;;;4780116;30;20222;-86
2024/01/05 09:31:25;;;;;;;10.90;7.00;;;2.70;99.90;;;;;;4777681;30;20204;-86
2024/01/05 09:33:51;;;;;;;7.83;6.30;;;2.70;99.90;;;;;;4785604;30;20195;-87
2024/01/05 09:36:17;;;;;;;9.17;6.30;;;2.70;99.90;;;;;;4788009;30;20202;-88
2024/01/05 09:38:43;;;;;;;9.00;6.67;;;2.70;99.90;;;;;;4788835;29;20197;-88
2024/01/05 09:41:13;;;;;;;10.10;6.43;;;2.70;99.90;;;;;;4788545;29;20206;-86
2024/01/05 09:43:47;;;;;;;8.23;6.27;;;2.70;99.90;;;;;;4781666;29;20248;-86
2024/01/05 09:46:13;;;;;;;8.30;6.20;;;2.80;99.90;;;;;;4788880;30;20226;-87
2024/01/05 09:48:39;;;;;;;11.53;6.30;;;2.80;99.90;;;;;;4788508;30;20193;-85
2024/01/05 09:51:07;;;;;;;7.33;5.80;;;2.80;99.90;;;;;;4788432;29;20648;-88
2024/01/05 09:53:33;;;;;;;9.00;6.33;;;2.90;99.90;;;;;;4783861;29;20628;-86
2024/01/05 09:56:02;;;;;;;10.43;6.53;;;2.90;99.90;;;;;;4786006;30;20206;-86
2024/01/05 09:58:29;;;;;;;7.70;6.07;;;2.90;99.90;;;;;;4786118;30;20202;-87
2024/01/05 10:00:59;;;;;;;6.40;5.33;;;2.90;99.90;;;;;;4788526;30;20202;-88
2024/01/05 10:03:26;;;;;;;7.60;5.97;;;2.90;99.90;;;;;;4788322;30;20195;-87
2024/01/05 10:05:53;;;;;;;8.80;6.60;;;2.90;99.90;;;;;;4787973;30;20234;-85
2024/01/05 10:08:22;;;;;;;8.30;5.40;;;2.90;99.90;;;;;;4789294;29;20183;-86
2024/01/05 10:10:51;;;;;;;10.47;6.27;;;2.90;99.90;;;;;;4788246;30;20231;-86
2024/01/05 10:13:17;;;;;;;8.80;5.40;;;3.00;99.90;;;;;;4788116;30;20234;-86
2024/01/05 10:16:00;;;;;;;8.43;5.30;;;2.90;99.90;;;;;;4782615;30;20239;-87
2024/01/05 10:18:29;;;;;;;7.50;5.67;;;3.00;99.90;;;;;;4770375;30;20239;-89
2024/01/05 10:20:57;;;;;;;8.53;6.40;;;2.90;99.90;;;;;;4770673;30;20632;-87
2024/01/05 10:23:23;;;;;;;9.07;6.30;;;3.00;99.90;;;;;;4781266;30;20635;-88
2024/01/05 10:25:51;;;;;;;9.70;6.43;;;2.90;99.90;;;;;;4788062;29;20240;-87
2024/01/05 10:28:26;;;;;;;10.07;6.30;;;2.90;99.90;;;;;;4786243;30;20206;-87
2024/01/05 10:30:52;;;;;;;10.10;6.90;;;3.00;99.90;;;;;;4788161;30;20199;-86
2024/01/05 10:33:19;;;;;;;6.73;5.37;;;3.00;99.90;;;;;;4788518;29;20244;-85
2024/01/05 10:35:46;;;;;;;8.80;6.57;;;3.00;99.90;;;;;;4781758;29;20196;-85
2024/01/05 10:38:16;;;;;;;8.53;6.27;;;3.00;99.90;;;;;;4764845;30;20227;-86
2024/01/05 10:40:42;;;;;;;10.03;6.53;;;3.00;99.90;;;;;;4787487;30;20225;-86
2024/01/05 10:43:11;;;;;;;8.70;6.77;;;3.00;99.90;;;;;;4787624;29;20203;-88
2024/01/05 10:45:45;;;;;;;9.60;6.70;;;3.00;99.90;;;;;;4788101;29;20674;-88
2024/01/05 10:48:16;;;;;;;8.13;6.43;;;3.00;99.90;;;;;;4781742;29;20282;-85
2024/01/05 10:50:44;;;;;;;9.50;6.30;;;2.90;99.90;;;;;;4787939;30;20242;-86
2024/01/05 10:53:10;;;;;;;9.03;6.70;;;2.90;99.90;;;;;;4788345;30;20248;-87
2024/01/05 10:55:45;;;;;;;10.20;6.93;;;2.90;99.90;;;;;;4787840;30;20226;-87
2024/01/05 10:58:16;;;;;;;13.70;7.77;;;2.90;99.90;;;;;;4785370;30;20200;-89
2024/01/05 11:00:44;;;;;;;10.73;6.33;;;2.90;99.90;;;;;;4788047;30;20513;-86
2024/01/05 11:03:14;;;;;;;9.57;7.10;;;2.90;99.90;;;;;;4780722;30;20615;-89
2024/01/05 11:05:46;;;;;;;11.00;6.83;;;2.90;99.90;;;;;;4780332;30;20221;-88
2024/01/05 11:08:49;;;;;;;10.43;7.13;;;2.90;99.90;;;;;;4785604;30;20233;-88
2024/01/05 11:11:30;;;;;;;10.53;7.17;;;3.00;99.90;;;;;;4787366;30;20206;-87
2024/01/05 11:14:05;;;;;;;10.07;7.47;;;2.90;99.90;;;;;;4788416;30;20226;-90
2024/01/05 11:16:43;;;;;;;14.67;7.53;;;2.90;99.90;;;;;;4788094;30;20201;-87
2024/01/05 11:19:26;;;;;;;10.20;6.93;;;3.00;99.90;;;;;;4780192;29;20246;-89
2024/01/05 11:21:59;;;;;;;10.63;7.57;;;3.00;99.90;;;;;;4780630;30;20199;-86
2024/01/05 11:24:26;;;;;;;11.43;7.70;;;3.00;99.90;;;;;;4769580;30;20248;-86
2024/01/05 11:26:55;;;;;;;11.33;7.20;;;3.00;99.90;;;;;;4784464;30;20202;-86
2024/01/05 11:30:00;;;;;;;12.77;7.67;;;3.00;99.90;;;;;;4786228;29;20542;-86
2024/01/05 11:32:49;;;;;;;12.90;7.90;;;3.10;99.90;;;;;;4719244;30;20213;-86
2024/01/05 11:35:20;;;;;;;9.63;7.43;;;3.10;99.90;;;;;;4721681;30;20209;-88
2024/01/05 11:37:47;;;;;;;13.57;8.83;;;3.10;99.90;;;;;;4767411;30;20591;-86
2024/01/05 11:40:39;;;;;;;13.10;8.70;;;3.10;99.90;;;;;;4790865;29;20192;-86
2024/01/05 11:43:38;;;;;;;13.53;8.43;;;3.10;99.90;;;;;;4787798;30;20210;-85
2024/01/05 11:46:04;;;;;;;13.93;8.73;;;3.10;99.90;;;;;;4751838;30;20242;-86
2024/01/05 11:48:36;;;;;;;13.77;9.40;;;3.10;99.90;;;;;;4790685;29;20222;-87
2024/01/05 11:51:12;;;;;;;14.00;9.03;;;3.10;99.90;;;;;;4789808;29;20221;-87
2024/01/05 11:53:38;;;;;;;12.90;8.60;;;3.10;99.90;;;;;;4791741;29;20202;-86
2024/01/05 11:56:15;;;;;;;14.50;9.23;;;3.10;99.90;;;;;;4782279;29;20199;-85
2024/01/05 11:58:43;;;;;;;23.07;9.90;;;3.20;99.90;;;;;;4776842;30;20208;-85
2024/01/05 12:01:10;;;;;;;14.27;9.90;;;3.20;99.90;;;;;;4788975;30;20199;-86
2024/01/05 12:03:40;;;;;;;14.33;9.37;;;3.20;99.90;;;;;;4789872;30;20198;-87
2024/01/05 12:06:09;;;;;;;14.30;9.70;;;3.10;99.90;;;;;;4788844;29;20195;-85
2024/01/05 12:08:36;;;;;;;14.33;9.60;;;3.20;99.90;;;;;;4784192;30;20232;-89
2024/01/05 12:11:03;;;;;;;20.20;10.50;;;3.20;99.90;;;;;;4788605;29;20203;-87
2024/01/05 12:13:32;;;;;;;17.43;11.33;;;3.20;99.90;;;;;;4783241;30;20199;-85
2024/01/05 12:16:05;;;;;;;14.70;10.17;;;3.20;99.90;;;;;;4790670;29;20191;-86
2024/01/05 12:18:51;;;;;;;15.90;10.10;;;3.20;99.90;;;;;;4789633;30;20364;-85
2024/01/05 12:21:19;;;;;;;15.83;10.07;;;3.20;99.90;;;;;;4781462;30;20203;-84
2024/01/05 12:23:53;;;;;;;17.17;10.27;;;3.30;99.90;;;;;;4783387;30;20196;-85
2024/01/05 12:26:20;;;;;;;12.63;9.33;;;3.20;99.90;;;;;;4789685;30;20260;-85
2024/01/05 12:28:47;;;;;;;16.50;10.17;;;3.20;99.90;;;;;;4787339;30;20187;-85
2024/01/05 12:31:13;;;;;;;15.30;9.87;;;3.20;99.90;;;;;;4789136;29;20298;-84
2024/01/05 12:33:40;;;;;;;16.70;10.87;;;3.30;99.90;;;;;;4789685;29;20201;-89
2024/01/05 12:36:14;;;;;;;17.03;10.80;;;3.30;99.90;;;;;;4789066;29;20249;-86
2024/01/05 12:38:40;;;;;;;17.10;10.90;;;3.30;99.90;;;;;;4789456;30;20290;-86
2024/01/05 12:41:13;;;;;;;15.63;10.83;;;3.30;99.90;;;;;;4789194;29;20199;-87
2024/01/05 12:43:44;;;;;;;17.03;9.83;;;3.30;99.90;;;;;;4788899;29;20227;-86
2024/01/05 12:46:10;;;;;;;18.50;10.73;;;3.30;99.90;;;;;;4782634;29;20207;-84
2024/01/05 12:48:36;;;;;;;14.13;10.37;;;3.30;99.90;;;;;;4789311;30;20706;-86
2024/01/05 12:51:07;;;;;;;15.13;10.23;;;3.30;99.90;;;;;;4781590;29;20348;-85
2024/01/05 12:53:33;;;;;;;17.97;11.00;;;3.30;99.90;;;;;;4789365;29;20270;-85